Latest Weather Observations for Banana Bank

IDQ60801

Issued at 10:02 pm EST Thursday 24 September 2020 (issued every 10 minutes, with the page automatically refreshed every 10 minutes)

About weather observations | Map of weather stations | Latest weather observations for QLD | Other Formats
Station Details ID: 040925 Name: BANANA BANK NORTH BEACON Lat: -27.53 Lon: 153.33 Height: 7.0 m
Data from the previous 72 hours. | See also: Recent months at Banana Bank
Date/Time
EST
Temp
°C
App
Temp
°C
Dew
Point
°C
Rel
Hum
%
Delta-T
°C
Wind Press
QNH
hPa
Press
MSL
hPa
Rain since
9am
mm
Dir  Spd
km/h
Gust
km/h
Spd
kts
Gust
kts
24/10:00pm - - - - - NNE 4 6 2 3 - - -
24/09:30pm - - - - - NNE 4 6 2 3 - - -
24/09:00pm - - - - - NE 4 7 2 4 - - -
24/08:30pm - - - - - NNE 4 6 2 3 - - -
24/08:00pm - - - - - NE 6 7 3 4 - - -
24/07:30pm - - - - - ENE 7 7 4 4 - - -
24/07:00pm - - - - - ENE 7 9 4 5 - - -
24/06:30pm - - - - - NE 11 13 6 7 - - -
24/06:00pm - - - - - NE 13 17 7 9 - - -
24/05:30pm - - - - - NE 17 20 9 11 - - -
24/05:00pm - - - - - NE 20 22 11 12 - - -
24/04:30pm - - - - - NE 20 24 11 13 - - -
24/04:00pm - - - - - NE 24 28 13 15 - - -
24/03:30pm - - - - - NE 24 30 13 16 - - -
24/03:00pm - - - - - NE 20 22 11 12 - - -
24/02:30pm - - - - - NE 15 19 8 10 - - -
24/02:00pm - - - - - NNE 15 19 8 10 - - -
24/01:30pm - - - - - NNE 17 19 9 10 - - -
24/01:00pm - - - - - NNE 11 19 6 10 - - -
24/12:30pm - - - - - NE 9 13 5 7 - - -
24/12:00pm - - - - - ENE 11 13 6 7 - - -
24/11:30am - - - - - ENE 11 13 6 7 - - -
24/11:00am - - - - - ESE 9 11 5 6 - - -
24/10:30am - - - - - SE 9 9 5 5 - - -
24/10:00am - - - - - SSE 7 11 4 6 - - -
24/09:30am - - - - - SSW 11 15 6 8 - - -
24/09:00am - - - - - SSW 15 20 8 11 - - -
24/08:30am - - - - - WSW 4 7 2 4 - - -
24/08:00am - - - - - WSW 9 13 5 7 - - -
24/07:30am - - - - - WSW 6 7 3 4 - - -
24/07:00am - - - - - SW 7 11 4 6 - - -
24/06:30am - - - - - W 7 9 4 5 - - -
24/06:00am - - - - - WSW 9 13 5 7 - - -
24/05:30am - - - - - WSW 11 15 6 8 - - -
24/05:00am - - - - - WSW 11 17 6 9 - - -
24/04:30am - - - - - SW 13 17 7 9 - - -
24/04:00am - - - - - SSW 9 13 5 7 - - -
24/03:30am - - - - - SW 13 15 7 8 - - -
24/03:00am - - - - - SSW 11 13 6 7 - - -
24/02:30am - - - - - SW 9 11 5 6 - - -
24/02:00am - - - - - SSW 7 11 4 6 - - -
24/01:30am - - - - - CALM 0 2 0 1 - - -
24/01:00am - - - - - S 4 4 2 2 - - -
24/12:30am - - - - - S 6 7 3 4 - - -
24/12:00am - - - - - WSW 4 7 2 4 - - -
 
Date/Time
EST
Temp
°C
App
Temp
°C
Dew
Point
°C
Rel
Hum
%
Delta-T
°C
Wind Press
QNH
hPa
Press
MSL
hPa
Rain since
9am
mm
Dir  Spd
km/h
Gust
km/h
Spd
kts
Gust
kts
23/11:30pm - - - - - SW 2 9 1 5 - - -
23/11:00pm - - - - - SSW 2 2 1 1 - - -
23/10:30pm - - - - - WSW 6 9 3 5 - - -
23/10:00pm - - - - - WNW 17 20 9 11 - - -
23/09:30pm - - - - - NNW 20 24 11 13 - - -
23/09:00pm - - - - - NNW 20 26 11 14 - - -
23/08:30pm - - - - - N 19 22 10 12 - - -
23/08:00pm - - - - - N 20 24 11 13 - - -
23/07:30pm - - - - - N 20 26 11 14 - - -
23/07:00pm - - - - - NNE 20 26 11 14 - - -
23/06:30pm - - - - - NNE 20 26 11 14 - - -
23/06:00pm - - - - - N 19 24 10 13 - - -
23/05:30pm - - - - - N 20 24 11 13 - - -
23/05:00pm - - - - - N 26 32 14 17 - - -
23/04:30pm - - - - - NNE 28 33 15 18 - - -
23/04:00pm - - - - - NNE 24 28 13 15 - - -
23/03:30pm - - - - - NNE 20 24 11 13 - - -
23/03:00pm - - - - - NNE 19 24 10 13 - - -
23/02:30pm - - - - - N 17 20 9 11 - - -
23/02:00pm - - - - - N 17 20 9 11 - - -
23/01:30pm - - - - - N 17 17 9 9 - - -
23/01:00pm - - - - - N 17 20 9 11 - - -
23/12:30pm - - - - - NNE 9 11 5 6 - - -
23/12:00pm - - - - - NNE 6 7 3 4 - - -
23/11:30am - - - - - N 7 9 4 5 - - -
23/11:00am - - - - - NNE 6 7 3 4 - - -
23/10:30am - - - - - NNE 6 9 3 5 - - -
23/10:00am - - - - - CALM 0 0 0 0 - - -
23/09:30am - - - - - CALM 0 0 0 0 - - -
23/09:00am - - - - - W 4 7 2 4 - - -
23/08:30am - - - - - WSW 6 7 3 4 - - -
23/08:00am - - - - - WSW 6 7 3 4 - - -
23/07:30am - - - - - W 9 11 5 6 - - -
23/07:00am - - - - - W 15 19 8 10 - - -
23/06:30am - - - - - W 15 19 8 10 - - -
23/06:00am - - - - - WSW 17 20 9 11 - - -
23/05:30am - - - - - WSW 9 13 5 7 - - -
23/05:00am - - - - - W 11 15 6 8 - - -
23/04:30am - - - - - W 15 19 8 10 - - -
23/04:00am - - - - - NW 22 26 12 14 - - -
23/03:30am - - - - - NW 24 28 13 15 - - -
23/03:00am - - - - - NNW 24 28 13 15 - - -
23/02:30am - - - - - NNW 26 30 14 16 - - -
23/02:00am - - - - - N 24 33 13 18 - - -
23/01:30am - - - - - NNW 24 30 13 16 - - -
23/01:00am - - - - - N 26 32 14 17 - - -
23/12:30am - - - - - N 30 35 16 19 - - -
23/12:00am - - - - - N 30 33 16 18 - - -
 
Date/Time
EST
Temp
°C
App
Temp
°C
Dew
Point
°C
Rel
Hum
%
Delta-T
°C
Wind Press
QNH
hPa
Press
MSL
hPa
Rain since
9am
mm
Dir  Spd
km/h
Gust
km/h
Spd
kts
Gust
kts
22/11:30pm - - - - - N 28 33 15 18 - - -
22/11:00pm - - - - - N 30 35 16 19 - - -
22/10:30pm - - - - - N 32 37 17 20 - - -
22/10:00pm - - - - - N 30 33 16 18 - - -
22/09:30pm - - - - - N 24 30 13 16 - - -
22/09:00pm - - - - - N 28 33 15 18 - - -
22/08:30pm - - - - - N 32 39 17 21 - - -
22/08:00pm - - - - - N 32 39 17 21 - - -
22/07:30pm - - - - - N 30 37 16 20 - - -
22/07:00pm - - - - - N 17 28 9 15 - - -
22/06:30pm - - - - - N 13 17 7 9 - - -
22/06:00pm - - - - - NNE 19 24 10 13 - - -
22/05:30pm - - - - - NNE 20 26 11 14 - - -
22/05:00pm - - - - - NNE 22 28 12 15 - - -
22/04:30pm - - - - - NNE 24 32 13 17 - - -
22/04:00pm - - - - - NNE 28 33 15 18 - - -
22/03:30pm - - - - - NNE 30 37 16 20 - - -
22/03:00pm - - - - - NNE 32 39 17 21 - - -
22/02:30pm - - - - - NNE 32 37 17 20 - - -
22/02:00pm - - - - - NNE 30 39 16 21 - - -
22/01:30pm - - - - - NNE 28 35 15 19 - - -
22/01:00pm - - - - - N 30 35 16 19 - - -
22/12:30pm - - - - - N 35 44 19 24 - - -
22/12:00pm - - - - - N 37 44 20 24 - - -
22/11:30am - - - - - N 35 41 19 22 - - -
22/11:00am - - - - - N 33 39 18 21 - - -
22/10:30am - - - - - N 33 41 18 22 - - -
22/10:00am - - - - - N 32 37 17 20 - - -
22/09:30am - - - - - N 32 37 17 20 - - -
22/09:00am - - - - - N 33 39 18 21 - - -
22/08:30am - - - - - N 32 35 17 19 - - -
22/08:00am - - - - - N 32 37 17 20 - - -
22/07:30am - - - - - NNW 30 35 16 19 - - -
22/07:00am - - - - - N 33 39 18 21 - - -
22/06:30am - - - - - N 35 43 19 23 - - -
22/06:00am - - - - - N 32 37 17 20 - - -
22/05:30am - - - - - N 32 37 17 20 - - -
22/05:00am - - - - - N 33 39 18 21 - - -
22/04:30am - - - - - N 32 39 17 21 - - -
22/04:00am - - - - - N 28 33 15 18 - - -
22/03:30am - - - - - N 28 32 15 17 - - -
22/03:00am - - - - - N 28 33 15 18 - - -
22/02:30am - - - - - N 28 33 15 18 - - -
22/02:00am - - - - - N 28 32 15 17 - - -
22/01:30am - - - - - N 28 33 15 18 - - -
22/01:00am - - - - - N 28 33 15 18 - - -
22/12:30am - - - - - N 32 39 17 21 - - -
22/12:00am - - - - - N 35 41 19 22 - - -
 
Date/Time
EST
Temp
°C
App
Temp
°C
Dew
Point
°C
Rel
Hum
%
Delta-T
°C
Wind Press
QNH
hPa
Press
MSL
hPa
Rain since
9am
mm
Dir  Spd
km/h
Gust
km/h
Spd
kts
Gust
kts
21/11:30pm - - - - - N 33 43 18 23 - - -
21/11:00pm - - - - - N 37 46 20 25 - - -
21/10:30pm - - - - - N 37 44 20 24 - - -

Other formats

Comma delimited format used in spreadsheet applications
http://www.bom.gov.au/fwo/IDQ60801/IDQ60801.94591.axf

JavaScript Object Notation format (JSON) in row-major order
http://www.bom.gov.au/fwo/IDQ60801/IDQ60801.94591.json

Data quality

Most of these data are generated automatically and are frequently updated. Quality checks on data are not normally performed. It is possible for incorrect values to appear. Refer to information at About Latest Weather Observations and please check the disclaimer before using these data.